createdAt,value
2017-06-28T14:45:24.852Z,972.75
2017-06-28T14:46:23.203Z,972.74
2017-06-28T14:47:23.204Z,972.74
2017-06-28T14:48:23.210Z,972.71
2017-06-28T14:49:23.211Z,972.66
2017-06-28T14:50:23.218Z,972.67
2017-06-28T14:51:23.221Z,972.72
2017-06-28T14:52:23.227Z,972.71
2017-06-28T14:53:23.235Z,972.69
2017-06-28T14:54:23.238Z,972.67
2017-06-28T14:55:23.246Z,972.66
2017-06-28T14:56:23.250Z,972.63
2017-06-28T14:57:23.255Z,972.57
2017-06-28T14:58:23.263Z,972.58
2017-06-28T14:59:23.267Z,972.59
2017-06-28T15:00:23.273Z,972.62
2017-06-28T15:01:23.280Z,972.71
2017-06-28T15:02:23.286Z,972.66
2017-06-28T15:03:23.293Z,972.67
2017-06-28T15:04:23.301Z,972.67
2017-06-28T15:05:23.306Z,972.63
2017-06-28T15:06:23.312Z,972.63
2017-06-28T15:07:23.318Z,972.65
2017-06-28T15:08:23.338Z,972.66
2017-06-28T15:09:23.332Z,972.63
2017-06-28T15:10:23.340Z,972.63
2017-06-28T15:11:23.346Z,972.54
2017-06-28T15:12:23.353Z,972.54
2017-06-28T15:13:23.360Z,972.55
2017-06-28T15:14:23.368Z,972.5
2017-06-28T15:15:23.395Z,972.43
2017-06-28T15:16:23.384Z,972.37
2017-06-28T15:17:23.387Z,972.26
2017-06-28T15:18:23.414Z,972.29
2017-06-28T15:19:23.412Z,972.26
2017-06-28T15:20:23.407Z,972.24
2017-06-28T15:21:23.413Z,972.24
2017-06-28T15:22:23.420Z,972.27
2017-06-28T15:23:23.428Z,972.28
2017-06-28T15:24:23.443Z,972.29
2017-06-28T15:25:23.443Z,972.33
2017-06-28T15:26:23.464Z,972.3
2017-06-28T15:27:23.457Z,972.25
2017-06-28T15:28:23.463Z,972.2
2017-06-28T15:29:23.468Z,972.2
2017-06-28T15:30:23.477Z,972.11
2017-06-28T15:31:23.581Z,972.11
2017-06-28T15:32:23.489Z,972.18
2017-06-28T15:33:23.495Z,972.15
2017-06-28T15:34:23.503Z,972.14
2017-06-28T15:35:23.509Z,972.14
2017-06-28T15:36:23.520Z,972.26
2017-06-28T15:37:23.525Z,972.18
2017-06-28T15:38:23.529Z,972.14
2017-06-28T15:39:23.543Z,972.14
2017-06-28T15:40:23.558Z,972.12
2017-06-28T15:41:23.553Z,972.09
2017-06-28T15:42:23.557Z,972.08
2017-06-28T15:43:23.564Z,972.06
2017-06-28T15:44:23.594Z,972.06
2017-06-28T15:45:23.578Z,972.06
2017-06-28T15:46:24.887Z,972.02
2017-06-28T15:47:23.592Z,971.97
2017-06-28T15:48:23.614Z,971.95
2017-06-28T15:49:23.612Z,971.88
2017-06-28T15:50:23.632Z,971.75
2017-06-28T15:51:23.621Z,971.9
2017-06-28T15:52:23.628Z,971.9
2017-06-28T15:53:23.635Z,971.87
2017-06-28T15:54:23.642Z,971.88
2017-06-28T15:55:23.654Z,971.82
2017-06-28T15:56:23.657Z,971.88
2017-06-28T15:57:23.663Z,971.9
2017-06-28T15:58:23.738Z,971.9
2017-06-28T15:59:23.677Z,971.93
2017-06-28T16:00:23.684Z,971.96
2017-06-28T16:01:23.690Z,971.95
2017-06-28T16:02:23.698Z,971.97
2017-06-28T16:03:23.705Z,971.98
2017-06-28T16:04:23.715Z,972
2017-06-28T16:05:23.719Z,971.93
2017-06-28T16:06:23.728Z,971.88
2017-06-28T16:07:23.735Z,971.86
2017-06-28T16:08:23.742Z,971.76
2017-06-28T16:09:23.746Z,971.77
2017-06-28T16:10:23.755Z,971.82
2017-06-28T16:11:23.762Z,971.8
2017-06-28T16:12:23.769Z,971.87
2017-06-28T16:13:23.775Z,971.85
2017-06-28T16:14:23.782Z,971.88
2017-06-28T16:15:23.790Z,971.9
2017-06-28T16:16:23.797Z,971.86
2017-06-28T16:17:23.804Z,971.83
2017-06-28T16:18:23.811Z,971.85
2017-06-28T16:19:23.819Z,971.8
2017-06-28T16:20:23.827Z,971.75
2017-06-28T16:21:23.834Z,971.74
2017-06-28T16:22:23.841Z,971.74
2017-06-28T16:23:23.848Z,971.72
2017-06-28T16:24:23.854Z,971.74
2017-06-28T16:25:23.861Z,971.71
2017-06-28T16:26:23.874Z,971.76
2017-06-28T16:27:23.902Z,971.77
2017-06-28T16:28:23.883Z,971.76
2017-06-28T16:29:23.891Z,971.73
2017-06-28T16:30:23.896Z,971.73
2017-06-28T16:31:23.922Z,971.73
2017-06-28T16:32:23.911Z,971.76
2017-06-28T16:33:23.918Z,971.81
2017-06-28T16:34:23.925Z,971.78
2017-06-28T16:35:23.952Z,971.74
2017-06-28T16:36:23.940Z,971.71
2017-06-28T16:37:23.948Z,971.67
2017-06-28T16:38:23.970Z,971.66
2017-06-28T16:39:23.962Z,971.63
2017-06-28T16:40:23.976Z,971.62
2017-06-28T16:41:23.973Z,971.57
2017-06-28T16:42:23.980Z,971.56
2017-06-28T16:43:23.988Z,971.5
2017-06-28T16:44:24.013Z,971.52
2017-06-28T16:45:24.017Z,971.47
2017-06-28T16:46:24.026Z,971.43
2017-06-28T16:47:24.015Z,971.48
2017-06-28T16:48:24.021Z,971.45
2017-06-28T16:49:24.051Z,971.49
2017-06-28T16:50:24.034Z,971.46
2017-06-28T16:51:24.041Z,971.5
2017-06-28T16:52:24.047Z,971.49
2017-06-28T16:53:24.056Z,971.43
2017-06-28T16:54:24.080Z,971.44
2017-06-28T16:55:24.092Z,971.39
2017-06-28T16:56:24.076Z,971.4
2017-06-28T16:57:24.106Z,971.38
2017-06-28T16:58:24.095Z,971.4
2017-06-28T16:59:24.097Z,971.38
2017-06-28T17:00:24.129Z,971.34
2017-06-28T17:01:24.111Z,971.34
2017-06-28T17:02:24.183Z,971.3
2017-06-28T17:03:24.151Z,971.25
2017-06-28T17:05:24.141Z,971.24
2017-06-28T17:06:24.146Z,971.23
2017-06-28T17:07:24.166Z,971.23
2017-06-28T17:08:24.155Z,971.23
2017-06-28T17:09:24.163Z,971.2
2017-06-28T17:10:24.188Z,971.23
2017-06-28T17:11:24.175Z,971.23
2017-06-28T17:12:24.187Z,971.2
2017-06-28T17:13:24.189Z,971.2
2017-06-28T17:14:24.195Z,971.17
2017-06-28T17:15:24.201Z,971.19
2017-06-28T17:16:24.217Z,971.21
2017-06-28T17:17:24.577Z,971.27
2017-06-28T17:18:24.221Z,971.24
2017-06-28T17:19:24.254Z,971.24
2017-06-28T17:20:24.234Z,971.25
2017-06-28T17:21:24.242Z,971.26
2017-06-28T17:22:24.299Z,971.24
2017-06-28T17:23:24.253Z,971.24
2017-06-28T17:24:24.283Z,971.21
2017-06-28T17:25:24.274Z,971.2
2017-06-28T17:26:24.291Z,971.21
2017-06-28T17:27:24.286Z,971.18
2017-06-28T17:28:24.305Z,971.22
2017-06-28T17:29:24.295Z,971.22
2017-06-28T17:30:24.318Z,971.19
2017-06-28T17:31:24.323Z,971.19
2017-06-28T17:32:24.363Z,971.15
2017-06-28T17:33:24.367Z,971.14
2017-06-28T17:34:24.325Z,971.16
2017-06-28T17:35:24.350Z,971.14
2017-06-28T17:36:24.336Z,971.13
2017-06-28T17:37:24.361Z,971.1
2017-06-28T17:38:24.351Z,971.12
2017-06-28T17:39:24.376Z,971.1
2017-06-28T17:40:24.363Z,971.11
2017-06-28T17:41:24.369Z,971.06
2017-06-28T17:42:24.378Z,971.04
2017-06-28T17:43:24.382Z,971.01
2017-06-28T17:44:24.406Z,970.99
2017-06-28T17:45:24.394Z,970.98
2017-06-28T17:46:24.401Z,970.98
2017-06-28T17:47:26.865Z,970.97
2017-06-28T17:48:24.416Z,970.95
2017-06-28T17:49:24.426Z,970.92
2017-06-28T17:50:24.425Z,970.92
2017-06-28T17:51:24.431Z,970.91
2017-06-28T17:52:24.438Z,970.9
2017-06-28T17:53:24.483Z,970.9
2017-06-28T17:54:24.478Z,970.91
2017-06-28T17:55:24.481Z,970.93
2017-06-28T17:56:24.474Z,970.91
2017-06-28T17:57:24.475Z,970.86
2017-06-28T17:58:24.502Z,970.88
2017-06-28T17:59:24.499Z,970.86
2017-06-28T18:00:24.577Z,970.85
2017-06-28T18:01:24.532Z,970.87
2017-06-28T18:02:24.511Z,970.88
2017-06-28T18:03:24.527Z,970.91
2017-06-28T18:04:24.530Z,970.88
2017-06-28T18:05:24.518Z,970.9
2017-06-28T18:06:24.525Z,970.9
2017-06-28T18:07:24.530Z,970.92
2017-06-28T18:08:24.555Z,970.93
2017-06-28T18:09:24.551Z,970.91
2017-06-28T18:10:24.547Z,970.89
2017-06-28T18:11:24.573Z,970.86
2017-06-28T18:12:24.571Z,970.83
2017-06-28T18:13:24.566Z,970.8
2017-06-28T18:14:24.610Z,970.8
2017-06-28T18:15:24.615Z,970.79
2017-06-28T18:16:24.600Z,970.78
2017-06-28T18:17:24.596Z,970.76
2017-06-28T18:18:24.596Z,970.76
2017-06-28T18:19:24.629Z,970.81
2017-06-28T18:20:24.609Z,970.77
2017-06-28T18:21:24.629Z,970.83
2017-06-28T18:22:24.616Z,970.82
2017-06-28T18:23:24.623Z,970.8
2017-06-28T18:24:24.647Z,970.83
2017-06-28T18:25:24.790Z,970.78
2017-06-28T18:26:24.638Z,970.8
2017-06-28T18:27:24.654Z,970.83
2017-06-28T18:28:24.704Z,970.83
2017-06-28T18:29:24.656Z,970.92
2017-06-28T18:30:24.666Z,970.95
2017-06-28T18:31:24.666Z,970.94
2017-06-28T18:32:24.669Z,971.01
2017-06-28T18:33:24.724Z,971.02
2017-06-28T18:34:24.688Z,971
2017-06-28T18:35:24.684Z,971.05
2017-06-28T18:36:24.691Z,971.02
2017-06-28T18:37:24.702Z,971.05
2017-06-28T18:38:24.709Z,971.03
2017-06-28T18:39:24.707Z,971.08
2017-06-28T18:40:24.730Z,971.1
2017-06-28T18:41:24.717Z,971.12
2017-06-28T18:42:24.722Z,971.14
2017-06-28T18:43:24.726Z,971.14
2017-06-28T18:44:24.742Z,971.1
2017-06-28T18:45:24.777Z,971.1
2017-06-28T18:46:24.741Z,971.14
2017-06-28T18:47:24.748Z,971.1
2017-06-28T18:48:25.968Z,971.11
2017-06-28T18:49:24.782Z,971.09
2017-06-28T18:50:24.786Z,971.08
2017-06-28T18:51:24.786Z,971.08
2017-06-28T18:52:24.783Z,971.05
2017-06-28T18:53:24.786Z,971.04
2017-06-28T18:54:24.804Z,971.03
2017-06-28T18:55:24.795Z,971.04
2017-06-28T18:56:24.793Z,971.1
2017-06-28T18:57:24.844Z,971.07
2017-06-28T18:58:24.803Z,971.08
2017-06-28T18:59:24.808Z,971.08
2017-06-28T19:00:24.829Z,971.08
2017-06-28T19:01:24.816Z,971.1
2017-06-28T19:02:24.822Z,971.15
2017-06-28T19:03:24.864Z,971.12
2017-06-28T19:04:24.840Z,971.15
2017-06-28T19:05:24.859Z,971.13
2017-06-28T19:06:24.843Z,971.12
2017-06-28T19:07:24.846Z,971.15
2017-06-28T19:08:24.855Z,971.12
2017-06-28T19:09:24.856Z,971.14
2017-06-28T19:10:24.864Z,971.13
2017-06-28T19:11:24.872Z,971.19
2017-06-28T19:12:24.891Z,971.14
2017-06-28T19:13:24.875Z,971.2
2017-06-28T19:14:24.881Z,971.2
2017-06-28T19:15:24.885Z,971.2
2017-06-28T19:16:24.908Z,971.2
2017-06-28T19:17:24.897Z,971.18
2017-06-28T19:18:24.924Z,971.18
2017-06-28T19:19:24.908Z,971.22
2017-06-28T19:20:24.927Z,971.25
2017-06-28T19:21:24.916Z,971.25
2017-06-28T19:22:24.920Z,971.29
2017-06-28T19:23:24.924Z,971.33
2017-06-28T19:24:24.930Z,971.33
2017-06-28T19:25:25.299Z,971.32
2017-06-28T19:26:24.938Z,971.33
2017-06-28T19:27:24.943Z,971.34
2017-06-28T19:28:24.948Z,971.32
2017-06-28T19:29:24.969Z,971.33
2017-06-28T19:30:25.011Z,971.29
2017-06-28T19:31:25.018Z,971.33
2017-06-28T19:32:24.970Z,971.28
2017-06-28T19:33:24.985Z,971.34
2017-06-28T19:34:24.982Z,971.39
2017-06-28T19:35:24.983Z,971.42
2017-06-28T19:36:24.988Z,971.5
2017-06-28T19:37:24.992Z,971.57
2017-06-28T19:38:25.056Z,971.59
2017-06-28T19:39:25.008Z,971.7
2017-06-28T19:40:25.006Z,971.75
2017-06-28T19:41:25.012Z,971.82
2017-06-28T19:42:25.022Z,971.86
2017-06-28T19:43:25.022Z,971.97
2017-06-28T19:44:25.024Z,971.99
2017-06-28T19:45:25.249Z,972.06
2017-06-28T19:46:25.035Z,972.11
2017-06-28T19:47:25.040Z,972.17
2017-06-28T19:48:25.043Z,972.25
2017-06-28T19:49:27.003Z,972.27
2017-06-28T19:50:25.053Z,972.33
2017-06-28T19:51:25.058Z,972.41
2017-06-28T19:52:25.061Z,972.45
2017-06-28T19:53:25.066Z,972.46
2017-06-28T19:54:25.071Z,972.49
2017-06-28T19:55:25.074Z,972.43
2017-06-28T19:56:25.078Z,972.36
2017-06-28T19:57:25.082Z,972.33
2017-06-28T19:58:25.087Z,972.34
2017-06-28T19:59:25.089Z,972.32
2017-06-28T20:00:25.099Z,972.32
2017-06-28T20:01:25.097Z,972.32
2017-06-28T20:02:25.100Z,972.33
2017-06-28T20:03:25.103Z,972.31
2017-06-28T20:04:25.109Z,972.39
2017-06-28T20:05:25.114Z,972.38
2017-06-28T20:06:25.131Z,972.48
2017-06-28T20:07:25.116Z,972.51
2017-06-28T20:08:25.154Z,972.5
2017-06-28T20:09:25.123Z,972.44
2017-06-28T20:10:25.125Z,972.48
2017-06-28T20:11:25.128Z,972.5
2017-06-28T20:12:25.162Z,972.47
2017-06-28T20:13:25.133Z,972.53
2017-06-28T20:14:25.138Z,972.52
2017-06-28T20:15:25.175Z,972.5
2017-06-28T20:16:25.142Z,972.5
2017-06-28T20:17:25.161Z,972.5
2017-06-28T20:18:25.151Z,972.49
2017-06-28T20:19:25.151Z,972.44
2017-06-28T20:20:25.172Z,972.46
2017-06-28T20:21:25.156Z,972.46
2017-06-28T20:22:25.518Z,972.43
2017-06-28T20:23:25.162Z,972.46
2017-06-28T20:24:25.165Z,972.41
2017-06-28T20:25:25.168Z,972.46
2017-06-28T20:26:25.171Z,972.43
2017-06-28T20:27:25.174Z,972.42
2017-06-28T20:28:25.187Z,972.44
2017-06-28T20:29:25.180Z,972.45
2017-06-28T20:30:25.202Z,972.39
2017-06-28T20:31:25.186Z,972.38
2017-06-28T20:32:25.189Z,972.37
2017-06-28T20:33:25.192Z,972.36
2017-06-28T20:34:25.197Z,972.33
2017-06-28T20:35:25.198Z,972.32
2017-06-28T20:36:25.202Z,972.37
2017-06-28T20:37:25.204Z,972.32
2017-06-28T20:38:25.208Z,972.34
2017-06-28T20:39:25.210Z,972.28
2017-06-28T20:40:25.213Z,972.25
2017-06-28T20:41:25.217Z,972.26
2017-06-28T20:42:25.460Z,972.26
2017-06-28T20:43:25.229Z,972.24
2017-06-28T20:44:25.259Z,972.21
2017-06-28T20:45:25.231Z,972.17
2017-06-28T20:46:25.231Z,972.19
2017-06-28T20:47:25.236Z,972.19
2017-06-28T20:48:25.239Z,972.21
2017-06-28T20:49:25.242Z,972.19
2017-06-28T20:50:25.244Z,972.19
2017-06-28T20:51:25.247Z,972.2
2017-06-28T20:52:25.251Z,972.17
2017-06-28T20:53:25.255Z,972.15
2017-06-28T20:54:25.256Z,972.21
2017-06-28T20:55:25.260Z,972.17
2017-06-28T20:56:25.265Z,972.2
